sensor_id;sensor_type;location;lat;lon;timestamp;pressure;altitude;pressure_sealevel;temperature;humidity
12759;BME280;20944;47.048;15.390;2022-10-24T00:02:25;97666.00;;;11.17;100.00
12759;BME280;20944;47.048;15.390;2022-10-24T00:05:13;97655.69;;;11.11;100.00
12759;BME280;20944;47.048;15.390;2022-10-24T00:08:02;97657.34;;;11.15;100.00
12759;BME280;20944;47.048;15.390;2022-10-24T00:10:52;97662.66;;;11.12;100.00
12759;BME280;20944;47.048;15.390;2022-10-24T00:13:40;97663.25;;;11.22;100.00
12759;BME280;20944;47.048;15.390;2022-10-24T00:16:29;97659.09;;;11.15;100.00
12759;BME280;20944;47.048;15.390;2022-10-24T00:19:17;97659.00;;;11.18;100.00
12759;BME280;20944;47.048;15.390;2022-10-24T00:22:05;97642.31;;;11.20;100.00
12759;BME280;20944;47.048;15.390;2022-10-24T00:24:53;97642.56;;;11.13;100.00
12759;BME280;20944;47.048;15.390;2022-10-24T00:27:43;97629.47;;;11.11;100.00
12759;BME280;20944;47.048;15.390;2022-10-24T00:30:31;97629.53;;;11.10;100.00
12759;BME280;20944;47.048;15.390;2022-10-24T00:33:20;97632.88;;;11.15;100.00
12759;BME280;20944;47.048;15.390;2022-10-24T00:36:09;97640.78;;;11.13;100.00
12759;BME280;20944;47.048;15.390;2022-10-24T00:38:58;97630.50;;;11.05;100.00
12759;BME280;20944;47.048;15.390;2022-10-24T00:41:46;97635.63;;;11.10;100.00
12759;BME280;20944;47.048;15.390;2022-10-24T00:44:37;97623.31;;;11.12;100.00
12759;BME280;20944;47.048;15.390;2022-10-24T00:47:26;97612.06;;;11.08;100.00
12759;BME280;20944;47.048;15.390;2022-10-24T00:50:14;97613.84;;;11.08;100.00
12759;BME280;20944;47.048;15.390;2022-10-24T00:53:02;97617.13;;;11.15;100.00
12759;BME280;20944;47.048;15.390;2022-10-24T00:55:52;97618.25;;;11.06;100.00
12759;BME280;20944;47.048;15.390;2022-10-24T00:58:42;97635.00;;;11.02;100.00
12759;BME280;20944;47.048;15.390;2022-10-24T01:01:32;97608.69;;;11.05;100.00
12759;BME280;20944;47.048;15.390;2022-10-24T01:04:21;97619.34;;;10.99;100.00
12759;BME280;20944;47.048;15.390;2022-10-24T01:07:22;97615.06;;;10.96;100.00
12759;BME280;20944;47.048;15.390;2022-10-24T01:10:19;97610.56;;;11.00;100.00
12759;BME280;20944;47.048;15.390;2022-10-24T01:13:14;97618.13;;;11.11;100.00
12759;BME280;20944;47.048;15.390;2022-10-24T01:16:08;97617.44;;;11.04;100.00
12759;BME280;20944;47.048;15.390;2022-10-24T01:19:01;97610.56;;;11.00;100.00
12759;BME280;20944;47.048;15.390;2022-10-24T01:21:55;97620.03;;;11.05;100.00
12759;BME280;20944;47.048;15.390;2022-10-24T01:24:49;97615.78;;;11.01;100.00
12759;BME280;20944;47.048;15.390;2022-10-24T01:27:47;97625.59;;;10.95;100.00
12759;BME280;20944;47.048;15.390;2022-10-24T01:30:43;97619.63;;;10.90;100.00
12759;BME280;20944;47.048;15.390;2022-10-24T01:33:34;97623.84;;;10.95;100.00
12759;BME280;20944;47.048;15.390;2022-10-24T01:36:25;97617.50;;;11.02;100.00
12759;BME280;20944;47.048;15.390;2022-10-24T01:39:18;97604.41;;;11.02;100.00
12759;BME280;20944;47.048;15.390;2022-10-24T01:42:09;97615.13;;;10.95;100.00
12759;BME280;20944;47.048;15.390;2022-10-24T01:45:00;97611.66;;;10.93;100.00
12759;BME280;20944;47.048;15.390;2022-10-24T01:47:52;97605.25;;;11.03;100.00
12759;BME280;20944;47.048;15.390;2022-10-24T01:50:43;97617.75;;;10.95;100.00
12759;BME280;20944;47.048;15.390;2022-10-24T01:53:32;97589.03;;;10.90;100.00
12759;BME280;20944;47.048;15.390;2022-10-24T01:56:23;97602.25;;;10.86;100.00
12759;BME280;20944;47.048;15.390;2022-10-24T02:02:16;97588.25;;;10.87;100.00
12759;BME280;20944;47.048;15.390;2022-10-24T02:05:07;97590.84;;;10.88;100.00
12759;BME280;20944;47.048;15.390;2022-10-24T02:07:59;97602.25;;;10.86;100.00
12759;BME280;20944;47.048;15.390;2022-10-24T02:10:49;97589.22;;;10.84;100.00
12759;BME280;20944;47.048;15.390;2022-10-24T02:13:40;97584.78;;;10.86;100.00
12759;BME280;20944;47.048;15.390;2022-10-24T02:16:32;97579.31;;;10.94;100.00
12759;BME280;20944;47.048;15.390;2022-10-24T02:19:21;97582.56;;;11.02;100.00
12759;BME280;20944;47.048;15.390;2022-10-24T02:22:13;97575.81;;;10.93;100.00
12759;BME280;20944;47.048;15.390;2022-10-24T02:25:06;97575.13;;;10.88;100.00
12759;BME280;20944;47.048;15.390;2022-10-24T02:27:56;97578.72;;;10.84;100.00
12759;BME280;20944;47.048;15.390;2022-10-24T02:30:49;97589.25;;;10.83;100.00
12759;BME280;20944;47.048;15.390;2022-10-24T02:33:39;97584.03;;;10.83;100.00
12759;BME280;20944;47.048;15.390;2022-10-24T02:36:28;97588.06;;;10.93;100.00
12759;BME280;20944;47.048;15.390;2022-10-24T02:39:18;97581.78;;;10.98;100.00
12759;BME280;20944;47.048;15.390;2022-10-24T02:42:07;97570.72;;;10.89;100.00
12759;BME280;20944;47.048;15.390;2022-10-24T02:44:56;97567.47;;;10.80;100.00
12759;BME280;20944;47.048;15.390;2022-10-24T02:47:44;97562.22;;;10.80;100.00
12759;BME280;20944;47.048;15.390;2022-10-24T02:50:33;97574.44;;;10.82;100.00
12759;BME280;20944;47.048;15.390;2022-10-24T02:53:23;97579.53;;;10.86;100.00
12759;BME280;20944;47.048;15.390;2022-10-24T02:56:13;97594.16;;;10.93;100.00
12759;BME280;20944;47.048;15.390;2022-10-24T02:59:01;97601.78;;;11.02;100.00
12759;BME280;20944;47.048;15.390;2022-10-24T03:01:50;97604.34;;;11.04;100.00
12759;BME280;20944;47.048;15.390;2022-10-24T03:04:38;97607.81;;;11.04;100.00
12759;BME280;20944;47.048;15.390;2022-10-24T03:07:27;97620.28;;;11.54;100.00
12759;BME280;20944;47.048;15.390;2022-10-24T03:10:16;97604.72;;;12.52;100.00
12759;BME280;20944;47.048;15.390;2022-10-24T03:13:06;97616.56;;;13.11;100.00
12759;BME280;20944;47.048;15.390;2022-10-24T03:15:54;97618.78;;;13.45;100.00
12759;BME280;20944;47.048;15.390;2022-10-24T03:18:42;97607.34;;;13.68;100.00
12759;BME280;20944;47.048;15.390;2022-10-24T03:21:31;97592.56;;;13.86;100.00
12759;BME280;20944;47.048;15.390;2022-10-24T03:24:19;97597.91;;;13.84;100.00
12759;BME280;20944;47.048;15.390;2022-10-24T03:27:28;97616.34;;;13.62;100.00
12759;BME280;20944;47.048;15.390;2022-10-24T03:30:18;97631.78;;;13.26;100.00
12759;BME280;20944;47.048;15.390;2022-10-24T03:33:06;97641.06;;;12.89;100.00
12759;BME280;20944;47.048;15.390;2022-10-24T03:35:54;97642.31;;;12.79;100.00
12759;BME280;20944;47.048;15.390;2022-10-24T03:38:43;97641.56;;;12.51;100.00
12759;BME280;20944;47.048;15.390;2022-10-24T03:41:31;97631.31;;;12.43;100.00
12759;BME280;20944;47.048;15.390;2022-10-24T03:44:19;97644.31;;;12.23;100.00
12759;BME280;20944;47.048;15.390;2022-10-24T03:47:09;97654.56;;;12.04;100.00
12759;BME280;20944;47.048;15.390;2022-10-24T03:49:58;97647.25;;;11.87;100.00
12759;BME280;20944;47.048;15.390;2022-10-24T03:52:46;97650.16;;;11.78;100.00
12759;BME280;20944;47.048;15.390;2022-10-24T03:55:34;97641.28;;;11.80;100.00
12759;BME280;20944;47.048;15.390;2022-10-24T03:58:23;97636.34;;;11.71;100.00
12759;BME280;20944;47.048;15.390;2022-10-24T04:01:11;97655.13;;;11.59;100.00
12759;BME280;20944;47.048;15.390;2022-10-24T04:04:05;97640.66;;;11.46;100.00
12759;BME280;20944;47.048;15.390;2022-10-24T04:06:53;97647.00;;;11.39;100.00
12759;BME280;20944;47.048;15.390;2022-10-24T04:09:42;97651.44;;;11.37;100.00
12759;BME280;20944;47.048;15.390;2022-10-24T04:12:30;97642.50;;;11.42;100.00
12759;BME280;20944;47.048;15.390;2022-10-24T04:15:19;97647.00;;;11.39;100.00
12759;BME280;20944;47.048;15.390;2022-10-24T04:18:07;97646.28;;;11.33;100.00
12759;BME280;20944;47.048;15.390;2022-10-24T04:20:57;97653.34;;;11.31;100.00
12759;BME280;20944;47.048;15.390;2022-10-24T04:23:45;97659.66;;;11.26;100.00
12759;BME280;20944;47.048;15.390;2022-10-24T04:26:34;97665.78;;;11.25;100.00
12759;BME280;20944;47.048;15.390;2022-10-24T04:29:22;97664.28;;;11.16;100.00
12759;BME280;20944;47.048;15.390;2022-10-24T04:32:10;97657.34;;;11.15;100.00
12759;BME280;20944;47.048;15.390;2022-10-24T04:34:59;97661.78;;;11.13;100.00
12759;BME280;20944;47.048;15.390;2022-10-24T04:37:49;97657.97;;;11.23;100.00
12759;BME280;20944;47.048;15.390;2022-10-24T04:40:37;97645.69;;;11.24;100.00
12759;BME280;20944;47.048;15.390;2022-10-24T04:43:26;97650.19;;;11.20;100.00
12759;BME280;20944;47.048;15.390;2022-10-24T04:46:14;97652.16;;;11.12;100.00
12759;BME280;20944;47.048;15.390;2022-10-24T04:49:02;97649.53;;;11.12;100.00
12759;BME280;20944;47.048;15.390;2022-10-24T04:51:51;97654.59;;;11.18;100.00
12759;BME280;20944;47.048;15.390;2022-10-24T04:54:40;97657.28;;;11.17;100.00
12759;BME280;20944;47.048;15.390;2022-10-24T04:57:29;97658.91;;;11.21;100.00
12759;BME280;20944;47.048;15.390;2022-10-24T05:00:17;97659.34;;;11.35;100.00
12759;BME280;20944;47.048;15.390;2022-10-24T05:03:06;97651.72;;;11.27;100.00
12759;BME280;20944;47.048;15.390;2022-10-24T05:05:54;97659.72;;;11.23;100.00
12759;BME280;20944;47.048;15.390;2022-10-24T05:08:42;97664.97;;;11.23;100.00
12759;BME280;20944;47.048;15.390;2022-10-24T05:11:32;97677.16;;;11.25;100.00
12759;BME280;20944;47.048;15.390;2022-10-24T05:14:21;97683.03;;;11.33;100.00
12759;BME280;20944;47.048;15.390;2022-10-24T05:17:09;97683.38;;;11.21;100.00
12759;BME280;20944;47.048;15.390;2022-10-24T05:19:57;97683.63;;;11.14;100.00
12759;BME280;20944;47.048;15.390;2022-10-24T05:22:46;97686.25;;;11.12;100.00
12759;BME280;20944;47.048;15.390;2022-10-24T05:25:34;97679.44;;;11.06;100.00
12759;BME280;20944;47.048;15.390;2022-10-24T05:28:24;97690.00;;;11.03;100.00
12759;BME280;20944;47.048;15.390;2022-10-24T05:31:12;97689.97;;;11.05;100.00
12759;BME280;20944;47.048;15.390;2022-10-24T05:34:01;97691.66;;;11.07;100.00
12759;BME280;20944;47.048;15.390;2022-10-24T05:36:49;97690.81;;;11.07;100.00
12759;BME280;20944;47.048;15.390;2022-10-24T05:39:37;97688.13;;;11.08;100.00
12759;BME280;20944;47.048;15.390;2022-10-24T05:42:26;97686.34;;;11.09;100.00
12759;BME280;20944;47.048;15.390;2022-10-24T05:45:16;97700.38;;;11.08;100.00
12759;BME280;20944;47.048;15.390;2022-10-24T05:48:05;97716.00;;;11.13;100.00
12759;BME280;20944;47.048;15.390;2022-10-24T05:50:54;97719.41;;;11.15;100.00
12759;BME280;20944;47.048;15.390;2022-10-24T05:53:42;97728.16;;;11.15;100.00
12759;BME280;20944;47.048;15.390;2022-10-24T05:56:31;97732.88;;;11.33;100.00
12759;BME280;20944;47.048;15.390;2022-10-24T05:59:19;97752.81;;;11.39;100.00
12759;BME280;20944;47.048;15.390;2022-10-24T06:02:09;97745.94;;;11.35;100.00
12759;BME280;20944;47.048;15.390;2022-10-24T06:05:04;97693.66;;;10.98;100.00
12759;BME280;20944;47.048;15.390;2022-10-24T06:07:52;97747.97;;;11.25;100.00
12759;BME280;20944;47.048;15.390;2022-10-24T06:10:40;97753.16;;;11.27;100.00
12759;BME280;20944;47.048;15.390;2022-10-24T06:13:29;97772.28;;;11.30;100.00
12759;BME280;20944;47.048;15.390;2022-10-24T06:16:21;97790.66;;;11.30;100.00
12759;BME280;20944;47.048;15.390;2022-10-24T06:19:12;97795.94;;;11.29;100.00
12759;BME280;20944;47.048;15.390;2022-10-24T06:22:00;97795.88;;;11.32;100.00
12759;BME280;20944;47.048;15.390;2022-10-24T06:24:49;97800.16;;;11.34;100.00
12759;BME280;20944;47.048;15.390;2022-10-24T06:27:37;97792.94;;;11.43;100.00
12759;BME280;20944;47.048;15.390;2022-10-24T06:30:26;97784.16;;;11.44;100.00
12759;BME280;20944;47.048;15.390;2022-10-24T06:33:14;97790.09;;;11.50;100.00
12759;BME280;20944;47.048;15.390;2022-10-24T06:36:04;97788.41;;;11.48;100.00
12759;BME280;20944;47.048;15.390;2022-10-24T06:38:55;97794.47;;;11.50;100.00
12759;BME280;20944;47.048;15.390;2022-10-24T06:41:43;97791.72;;;11.54;100.00
12759;BME280;20944;47.048;15.390;2022-10-24T06:44:33;97789.03;;;11.56;100.00
12759;BME280;20944;47.048;15.390;2022-10-24T06:47:21;97795.16;;;11.56;100.00
12759;BME280;20944;47.048;15.390;2022-10-24T06:50:10;97795.94;;;11.60;100.00
12759;BME280;20944;47.048;15.390;2022-10-24T06:52:59;97810.72;;;11.62;100.00
12759;BME280;20944;47.048;15.390;2022-10-24T06:55:48;97819.38;;;11.66;100.00
12759;BME280;20944;47.048;15.390;2022-10-24T06:58:36;97817.09;;;11.85;100.00
12759;BME280;20944;47.048;15.390;2022-10-24T07:01:25;97824.00;;;11.87;100.00
12759;BME280;20944;47.048;15.390;2022-10-24T07:04:14;97820.53;;;11.87;100.00
12759;BME280;20944;47.048;15.390;2022-10-24T07:07:02;97816.75;;;11.97;100.00
12759;BME280;20944;47.048;15.390;2022-10-24T07:09:53;97819.97;;;12.07;100.00
12759;BME280;20944;47.048;15.390;2022-10-24T07:12:41;97817.84;;;12.18;100.00
12759;BME280;20944;47.048;15.390;2022-10-24T07:15:30;97820.94;;;12.31;100.00
12759;BME280;20944;47.048;15.390;2022-10-24T07:18:19;97837.22;;;12.42;100.00
12759;BME280;20944;47.048;15.390;2022-10-24T07:21:08;97842.34;;;12.47;100.00
12759;BME280;20944;47.048;15.390;2022-10-24T07:23:58;97839.59;;;12.51;100.00
12759;BME280;20944;47.048;15.390;2022-10-24T07:26:48;97834.13;;;12.57;100.00
12759;BME280;20944;47.048;15.390;2022-10-24T07:29:37;97840.06;;;12.62;100.00
12759;BME280;20944;47.048;15.390;2022-10-24T07:32:25;97845.97;;;12.71;100.00
12759;BME280;20944;47.048;15.390;2022-10-24T07:35:14;97842.94;;;12.81;100.00
12759;BME280;20944;47.048;15.390;2022-10-24T07:38:02;97848.28;;;12.80;100.00
12759;BME280;20944;47.048;15.390;2022-10-24T07:40:51;97846.44;;;12.82;100.00
12759;BME280;20944;47.048;15.390;2022-10-24T07:43:40;97837.56;;;12.86;100.00
12759;BME280;20944;47.048;15.390;2022-10-24T07:46:29;97837.19;;;12.96;100.00
12759;BME280;20944;47.048;15.390;2022-10-24T07:49:17;97851.72;;;13.08;100.00
12759;BME280;20944;47.048;15.390;2022-10-24T07:52:06;97834.66;;;13.20;100.00
12759;BME280;20944;47.048;15.390;2022-10-24T07:54:54;97833.47;;;13.29;100.00
12759;BME280;20944;47.048;15.390;2022-10-24T07:57:43;97833.31;;;13.33;100.00
12759;BME280;20944;47.048;15.390;2022-10-24T08:00:34;97827.78;;;13.41;100.00
12759;BME280;20944;47.048;15.390;2022-10-24T08:03:29;97826.34;;;13.56;100.00
12759;BME280;20944;47.048;15.390;2022-10-24T08:06:22;97824.19;;;13.67;100.00
12759;BME280;20944;47.048;15.390;2022-10-24T08:09:11;97819.63;;;13.72;100.00
12759;BME280;20944;47.048;15.390;2022-10-24T08:11:59;97814.97;;;13.79;100.00
12759;BME280;20944;47.048;15.390;2022-10-24T08:14:48;97818.00;;;13.91;100.00
12759;BME280;20944;47.048;15.390;2022-10-24T08:17:39;97813.00;;;14.07;100.00
12759;BME280;20944;47.048;15.390;2022-10-24T08:20:27;97804.69;;;14.18;100.00
12759;BME280;20944;47.048;15.390;2022-10-24T08:23:16;97812.16;;;14.28;100.00
12759;BME280;20944;47.048;15.390;2022-10-24T08:26:11;97804.28;;;14.50;100.00
12759;BME280;20944;47.048;15.390;2022-10-24T08:29:00;97807.88;;;14.70;100.00
12759;BME280;20944;47.048;15.390;2022-10-24T08:31:50;97808.22;;;14.82;100.00
12759;BME280;20944;47.048;15.390;2022-10-24T08:34:41;97798.66;;;14.80;100.00
12759;BME280;20944;47.048;15.390;2022-10-24T08:37:29;97789.16;;;14.76;100.00
12759;BME280;20944;47.048;15.390;2022-10-24T08:40:18;97781.97;;;14.79;100.00
12759;BME280;20944;47.048;15.390;2022-10-24T08:43:07;97785.06;;;14.89;100.00
12759;BME280;20944;47.048;15.390;2022-10-24T08:45:59;97782.97;;;14.97;100.00
12759;BME280;20944;47.048;15.390;2022-10-24T08:48:51;97784.34;;;15.06;100.00
12759;BME280;20944;47.048;15.390;2022-10-24T08:51:43;97784.75;;;15.17;100.00
12759;BME280;20944;47.048;15.390;2022-10-24T08:54:34;97781.66;;;15.28;100.00
12759;BME280;20944;47.048;15.390;2022-10-24T08:57:25;97784.81;;;15.36;100.00
12759;BME280;20944;47.048;15.390;2022-10-24T09:00:15;97782.00;;;15.39;100.00
12759;BME280;20944;47.048;15.390;2022-10-24T09:03:05;97777.47;;;15.43;100.00
12759;BME280;20944;47.048;15.390;2022-10-24T09:05:58;97772.75;;;15.49;100.00
12759;BME280;20944;47.048;15.390;2022-10-24T09:08:51;97787.56;;;15.53;100.00
12759;BME280;20944;47.048;15.390;2022-10-24T09:11:42;97778.25;;;15.65;100.00
12759;BME280;20944;47.048;15.390;2022-10-24T09:14:32;97781.78;;;15.64;100.00
12759;BME280;20944;47.048;15.390;2022-10-24T09:17:22;97787.88;;;15.66;100.00
12759;BME280;20944;47.048;15.390;2022-10-24T09:20:18;97787.38;;;15.77;100.00
12759;BME280;20944;47.048;15.390;2022-10-24T09:23:09;97775.75;;;15.81;100.00
12759;BME280;20944;47.048;15.390;2022-10-24T09:26:01;97774.03;;;15.99;100.00
12759;BME280;20944;47.048;15.390;2022-10-24T09:28:50;97763.81;;;16.10;100.00
12759;BME280;20944;47.048;15.390;2022-10-24T09:31:40;97759.00;;;16.18;100.00
12759;BME280;20944;47.048;15.390;2022-10-24T09:34:29;97763.78;;;16.29;100.00
12759;BME280;20944;47.048;15.390;2022-10-24T09:37:31;97767.44;;;16.43;100.00
12759;BME280;20944;47.048;15.390;2022-10-24T09:40:30;97766.97;;;16.71;100.00
12759;BME280;20944;47.048;15.390;2022-10-24T09:43:21;97755.44;;;16.90;100.00
12759;BME280;20944;47.048;15.390;2022-10-24T09:46:12;97758.56;;;16.98;100.00
12759;BME280;20944;47.048;15.390;2022-10-24T09:49:14;97749.91;;;17.12;100.00
12759;BME280;20944;47.048;15.390;2022-10-24T09:52:15;97754.25;;;17.30;100.00
12759;BME280;20944;47.048;15.390;2022-10-24T09:55:15;97754.56;;;17.57;100.00
12759;BME280;20944;47.048;15.390;2022-10-24T09:58:04;97755.00;;;17.65;100.00
12759;BME280;20944;47.048;15.390;2022-10-24T10:00:59;97717.59;;;17.38;100.00
12759;BME280;20944;47.048;15.390;2022-10-24T10:04:00;97752.66;;;17.59;100.00
12759;BME280;20944;47.048;15.390;2022-10-24T10:06:54;97752.66;;;17.59;100.00
12759;BME280;20944;47.048;15.390;2022-10-24T10:09:49;97739.41;;;17.59;100.00
12759;BME280;20944;47.048;15.390;2022-10-24T10:12:44;97730.88;;;17.70;100.00
12759;BME280;20944;47.048;15.390;2022-10-24T10:15:36;97735.25;;;17.71;100.00
12759;BME280;20944;47.048;15.390;2022-10-24T10:18:30;97743.09;;;17.74;100.00
12759;BME280;20944;47.048;15.390;2022-10-24T10:21:21;97725.94;;;17.64;100.00
12759;BME280;20944;47.048;15.390;2022-10-24T10:24:23;97714.47;;;17.47;100.00
12759;BME280;20944;47.048;15.390;2022-10-24T10:27:28;97720.97;;;17.58;100.00
12759;BME280;20944;47.048;15.390;2022-10-24T10:30:19;97699.34;;;17.49;100.00
12759;BME280;20944;47.048;15.390;2022-10-24T10:33:14;97709.00;;;17.50;100.00
12759;BME280;20944;47.048;15.390;2022-10-24T10:36:12;97707.94;;;17.53;100.00
12759;BME280;20944;47.048;15.390;2022-10-24T10:39:19;97709.31;;;17.44;100.00
12759;BME280;20944;47.048;15.390;2022-10-24T10:42:15;97701.22;;;17.47;100.00
12759;BME280;20944;47.048;15.390;2022-10-24T10:45:14;97691.81;;;17.58;100.00
12759;BME280;20944;47.048;15.390;2022-10-24T10:48:15;97696.25;;;17.57;100.00
12759;BME280;20944;47.048;15.390;2022-10-24T10:51:16;97675.47;;;17.49;100.00
12759;BME280;20944;47.048;15.390;2022-10-24T10:54:17;97693.72;;;17.71;100.00
12759;BME280;20944;47.048;15.390;2022-10-24T10:57:12;97685.94;;;17.68;100.00
12759;BME280;20944;47.048;15.390;2022-10-24T11:00:08;97683.06;;;17.73;100.00
12759;BME280;20944;47.048;15.390;2022-10-24T11:03:08;97684.50;;;17.78;100.00
12759;BME280;20944;47.048;15.390;2022-10-24T11:06:15;97677.75;;;17.73;100.00
12759;BME280;20944;47.048;15.390;2022-10-24T11:09:18;97669.38;;;17.81;100.00
12759;BME280;20944;47.048;15.390;2022-10-24T11:12:13;97676.81;;;17.74;100.00
12759;BME280;20944;47.048;15.390;2022-10-24T11:15:08;97674.28;;;17.71;100.00
12759;BME280;20944;47.048;15.390;2022-10-24T11:18:07;97677.47;;;17.77;100.00
12759;BME280;20944;47.048;15.390;2022-10-24T11:20:59;97611.81;;;17.35;100.00
12759;BME280;20944;47.048;15.390;2022-10-24T11:23:53;97665.88;;;17.80;100.00
12759;BME280;20944;47.048;15.390;2022-10-24T11:26:45;97652.69;;;17.78;100.00
12759;BME280;20944;47.048;15.390;2022-10-24T11:29:41;97640.38;;;17.77;100.00
12759;BME280;20944;47.048;15.390;2022-10-24T11:32:36;97646.69;;;17.91;100.00
12759;BME280;20944;47.048;15.390;2022-10-24T11:35:28;97653.63;;;17.93;100.00
12759;BME280;20944;47.048;15.390;2022-10-24T11:38:21;97652.44;;;17.99;100.00
12759;BME280;20944;47.048;15.390;2022-10-24T11:41:36;97609.16;;;17.83;100.00
12759;BME280;20944;47.048;15.390;2022-10-24T11:44:40;97651.16;;;18.20;100.00
12759;BME280;20944;47.048;15.390;2022-10-24T11:47:53;97653.47;;;18.26;100.00
12759;BME280;20944;47.048;15.390;2022-10-24T11:50:47;97641.38;;;18.37;100.00
12759;BME280;20944;47.048;15.390;2022-10-24T11:53:51;97647.66;;;18.50;100.00
12759;BME280;20944;47.048;15.390;2022-10-24T11:56:45;97643.13;;;18.52;100.00
12759;BME280;20944;47.048;15.390;2022-10-24T11:59:35;97628.53;;;18.59;100.00
12759;BME280;20944;47.048;15.390;2022-10-24T12:02:52;97627.06;;;18.69;100.00
12759;BME280;20944;47.048;15.390;2022-10-24T12:06:03;97610.88;;;18.74;100.00
12759;BME280;20944;47.048;15.390;2022-10-24T12:09:14;97595.59;;;18.77;100.00
12759;BME280;20944;47.048;15.390;2022-10-24T12:12:17;97596.81;;;18.72;100.00
12759;BME280;20944;47.048;15.390;2022-10-24T12:15:23;97589.16;;;18.67;100.00
12759;BME280;20944;47.048;15.390;2022-10-24T12:18:26;97541.31;;;18.39;100.00
12759;BME280;20944;47.048;15.390;2022-10-24T12:21:18;97596.50;;;18.62;100.00
12759;BME280;20944;47.048;15.390;2022-10-24T12:24:20;97586.44;;;18.53;100.00
12759;BME280;20944;47.048;15.390;2022-10-24T12:27:26;97585.09;;;18.46;100.00
12759;BME280;20944;47.048;15.390;2022-10-24T12:30:19;97580.94;;;18.42;100.00
12759;BME280;20944;47.048;15.390;2022-10-24T12:33:20;97588.97;;;18.40;100.00
12759;BME280;20944;47.048;15.390;2022-10-24T12:36:11;97581.38;;;18.34;100.00
12759;BME280;20944;47.048;15.390;2022-10-24T12:39:02;97575.06;;;18.37;100.00
12759;BME280;20944;47.048;15.390;2022-10-24T12:41:51;97574.69;;;18.43;100.00
12759;BME280;20944;47.048;15.390;2022-10-24T12:44:45;97555.75;;;18.49;100.00
12759;BME280;20944;47.048;15.390;2022-10-24T12:47:38;97561.03;;;18.49;100.00
12759;BME280;20944;47.048;15.390;2022-10-24T12:51:01;97540.94;;;18.30;100.00
12759;BME280;20944;47.048;15.390;2022-10-24T12:54:14;97515.03;;;18.05;100.00
12759;BME280;20944;47.048;15.390;2022-10-24T12:57:30;97537.59;;;18.27;100.00
12759;BME280;20944;47.048;15.390;2022-10-24T13:00:24;97550.81;;;18.57;100.00
12759;BME280;20944;47.048;15.390;2022-10-24T13:03:18;97545.41;;;18.58;100.00
12759;BME280;20944;47.048;15.390;2022-10-24T13:06:13;97541.78;;;18.59;100.00
12759;BME280;20944;47.048;15.390;2022-10-24T13:09:16;97526.66;;;18.76;100.00
12759;BME280;20944;47.048;15.390;2022-10-24T13:12:27;97514.88;;;18.66;100.00
12759;BME280;20944;47.048;15.390;2022-10-24T13:15:28;97493.84;;;18.63;100.00
12759;BME280;20944;47.048;15.390;2022-10-24T13:18:29;97456.03;;;18.30;100.00
12759;BME280;20944;47.048;15.390;2022-10-24T13:21:26;97519.06;;;18.55;100.00
12759;BME280;20944;47.048;15.390;2022-10-24T13:24:31;97494.69;;;18.34;100.00
12759;BME280;20944;47.048;15.390;2022-10-24T13:27:29;97501.59;;;18.51;100.00
12759;BME280;20944;47.048;15.390;2022-10-24T13:30:25;97412.56;;;18.04;100.00
12759;BME280;20944;47.048;15.390;2022-10-24T13:33:40;97506.47;;;18.73;100.00
12759;BME280;20944;47.048;15.390;2022-10-24T13:36:30;97493.84;;;18.77;100.00
12759;BME280;20944;47.048;15.390;2022-10-24T13:39:23;97504.50;;;19.18;100.00
12759;BME280;20944;47.048;15.390;2022-10-24T13:42:35;97499.97;;;19.74;100.00
12759;BME280;20944;47.048;15.390;2022-10-24T13:45:32;97487.00;;;19.82;100.00
12759;BME280;20944;47.048;15.390;2022-10-24T13:48:28;97487.97;;;19.94;100.00
12759;BME280;20944;47.048;15.390;2022-10-24T13:51:22;97504.94;;;21.32;100.00
12759;BME280;20944;47.048;15.390;2022-10-24T13:54:17;97496.59;;;23.31;100.00
12759;BME280;20944;47.048;15.390;2022-10-24T13:57:26;97493.53;;;24.11;100.00
12759;BME280;20944;47.048;15.390;2022-10-24T14:00:19;97481.78;;;24.75;69.05
12759;BME280;20944;47.048;15.390;2022-10-24T14:03:14;97454.59;;;24.80;66.31
12759;BME280;20944;47.048;15.390;2022-10-24T14:06:05;97471.59;;;23.97;69.27
12759;BME280;20944;47.048;15.390;2022-10-24T14:08:55;97473.69;;;23.50;72.64
12759;BME280;20944;47.048;15.390;2022-10-24T14:11:53;97476.13;;;23.21;72.36
12759;BME280;20944;47.048;15.390;2022-10-24T14:14:46;97489.22;;;22.56;76.91
12759;BME280;20944;47.048;15.390;2022-10-24T14:17:35;97479.69;;;22.07;80.99
12759;BME280;20944;47.048;15.390;2022-10-24T14:20:28;97464.00;;;21.57;80.69
12759;BME280;20944;47.048;15.390;2022-10-24T14:23:24;97459.31;;;21.47;81.96
12759;BME280;20944;47.048;15.390;2022-10-24T14:26:17;97480.25;;;21.65;82.04
12759;BME280;20944;47.048;15.390;2022-10-24T14:29:20;97481.44;;;22.31;79.61
12759;BME280;20944;47.048;15.390;2022-10-24T14:32:12;97390.84;;;21.83;77.35
12759;BME280;20944;47.048;15.390;2022-10-24T14:35:03;97479.84;;;22.17;77.23
12759;BME280;20944;47.048;15.390;2022-10-24T14:37:53;97475.97;;;21.51;80.10
12759;BME280;20944;47.048;15.390;2022-10-24T14:40:42;97447.19;;;20.83;87.12
12759;BME280;20944;47.048;15.390;2022-10-24T14:43:31;97469.81;;;20.26;91.72
12759;BME280;20944;47.048;15.390;2022-10-24T14:46:33;97479.97;;;19.81;98.48
12759;BME280;20944;47.048;15.390;2022-10-24T14:49:28;97415.56;;;18.97;100.00
12759;BME280;20944;47.048;15.390;2022-10-24T14:52:27;97461.84;;;19.07;100.00
12759;BME280;20944;47.048;15.390;2022-10-24T14:55:19;97450.69;;;18.88;100.00